Terminal Aerodrome Forecast
Issued by NWS

Home | Current Version | Previous Version | Text Only | Print | Product List | Glossary On
Versions: 1 2 3 4 5 6 7 8 9 10 11 12 13 14 15 16
000
FTUS41 KRNK 280229 AAA
TAFLWB
TAF AMD
KLWB 280229Z 2802/2824 00000KT 2SM BR SCT050
      TEMPO 2803/2807 1/2SM FG BKN001
     FM280700 00000KT 1/4SM FG OVC001
     FM281300 00000KT P6SM FEW250
     FM281600 19007KT P6SM SCT250=

USA.gov is the U.S. government's official web portal to all federal, state and local government web resources and services.